KTOI/TOI METAR and TAF weather

Enter ICAO airport designator
Station Type Date Time Source
KTOI METAR 2019/02/21 11:53 UTC NOAA

KTOI 211153Z AUTO 18004KT 6SM BR FEW050 20/19 A3005 RMK AO2 SLP173 60000 70001 T02000194 10211 20200 53014


Station Type Date Time Source
KTOI Decoded METAR 2019/02/21 11:53 UTC NOAA

TROY MUNICIPAL AIRPORT, AL, United States (KTOI) 31-52N 086-01W 118M
Feb 21, 2019 - 06:53 AM EST / 2019.02.21 1153 UTC
Wind: from the S (180 degrees) at 5 MPH (4 KT):0
Visibility: 6 mile(s):0
Sky conditions: mostly clear
Weather: mist
Temperature: 68.0 F (20.0 C)
Dew Point: 66.9 F (19.4 C)
Relative Humidity: 96%
Pressure (altimeter): 30.05 in. Hg (1017 hPa)
Pressure tendency: 0.04 inches (1.4 hPa) higher than three hours ago
ob: KTOI 211153Z AUTO 18004KT 6SM BR FEW050 20/19 A3005 RMK AO2 SLP173 60000 70001 T02000194 10211 20200 53014
cycle: 12

Station Type Date Time Source
KTOI TAF 2019/02/21 12:51 UTC NOAA

TAF KTOI 211148Z 2112/2212 17006KT 5SM BR SCT006 OVC100
FM211400 18003KT P6SM VCSH OVC015
FM211900 17007KT 3SM TSRA OVC009CB
FM220200 16003KT 5SM -DZ BR OVC004


Example: see airport list